sensor_id;sensor_type;location;lat;lon;timestamp;P1;durP1;ratioP1;P2;durP2;ratioP2
69053;SDS011;56125;52.242;4.756;2023-01-28T00:02:47;1.10;;;1.00;;
69053;SDS011;56125;52.242;4.756;2023-01-28T00:07:49;1.75;;;1.30;;
69053;SDS011;56125;52.242;4.756;2023-01-28T00:12:51;1.40;;;1.30;;
69053;SDS011;56125;52.242;4.756;2023-01-28T00:17:53;1.55;;;1.30;;
69053;SDS011;56125;52.242;4.756;2023-01-28T00:22:54;1.57;;;1.20;;
69053;SDS011;56125;52.242;4.756;2023-01-28T00:27:55;1.45;;;1.17;;
69053;SDS011;56125;52.242;4.756;2023-01-28T00:32:56;1.17;;;1.03;;
69053;SDS011;56125;52.242;4.756;2023-01-28T00:37:58;1.40;;;1.30;;
69053;SDS011;56125;52.242;4.756;2023-01-28T00:42:59;1.43;;;1.20;;
69053;SDS011;56125;52.242;4.756;2023-01-28T00:48:01;1.10;;;1.00;;
69053;SDS011;56125;52.242;4.756;2023-01-28T00:53:02;1.47;;;1.20;;
69053;SDS011;56125;52.242;4.756;2023-01-28T00:58:03;1.17;;;0.88;;
69053;SDS011;56125;52.242;4.756;2023-01-28T01:03:04;1.87;;;1.10;;
69053;SDS011;56125;52.242;4.756;2023-01-28T01:08:05;1.27;;;1.00;;
69053;SDS011;56125;52.242;4.756;2023-01-28T01:13:06;1.40;;;1.10;;
69053;SDS011;56125;52.242;4.756;2023-01-28T01:18:07;1.10;;;1.00;;
69053;SDS011;56125;52.242;4.756;2023-01-28T01:23:08;0.90;;;0.60;;
69053;SDS011;56125;52.242;4.756;2023-01-28T01:28:09;1.00;;;0.90;;
69053;SDS011;56125;52.242;4.756;2023-01-28T01:33:10;1.40;;;1.30;;
69053;SDS011;56125;52.242;4.756;2023-01-28T01:38:11;1.13;;;0.95;;
69053;SDS011;56125;52.242;4.756;2023-01-28T01:43:14;1.10;;;0.80;;
69053;SDS011;56125;52.242;4.756;2023-01-28T01:48:23;1.27;;;0.80;;
69053;SDS011;56125;52.242;4.756;2023-01-28T01:53:31;1.10;;;0.90;;
69053;SDS011;56125;52.242;4.756;2023-01-28T01:58:33;1.10;;;1.00;;
69053;SDS011;56125;52.242;4.756;2023-01-28T02:03:45;0.90;;;0.80;;
69053;SDS011;56125;52.242;4.756;2023-01-28T02:08:53;0.80;;;0.77;;
69053;SDS011;56125;52.242;4.756;2023-01-28T02:13:55;1.53;;;0.90;;
69053;SDS011;56125;52.242;4.756;2023-01-28T02:18:59;1.05;;;0.90;;
69053;SDS011;56125;52.242;4.756;2023-01-28T02:24:12;1.60;;;0.97;;
69053;SDS011;56125;52.242;4.756;2023-01-28T02:29:26;1.92;;;0.73;;
69053;SDS011;56125;52.242;4.756;2023-01-28T02:34:51;0.80;;;0.80;;
69053;SDS011;56125;52.242;4.756;2023-01-28T02:40:14;1.67;;;1.08;;
69053;SDS011;56125;52.242;4.756;2023-01-28T02:45:24;1.53;;;0.90;;
69053;SDS011;56125;52.242;4.756;2023-01-28T02:51:00;1.20;;;0.70;;
69053;SDS011;56125;52.242;4.756;2023-01-28T03:01:44;1.00;;;0.90;;
69053;SDS011;56125;52.242;4.756;2023-01-28T03:06:50;1.13;;;0.80;;
69053;SDS011;56125;52.242;4.756;2023-01-28T03:11:56;1.27;;;0.88;;
69053;SDS011;56125;52.242;4.756;2023-01-28T03:23:00;1.90;;;0.80;;
69053;SDS011;56125;52.242;4.756;2023-01-28T03:28:25;0.80;;;0.70;;
69053;SDS011;56125;52.242;4.756;2023-01-28T03:33:47;1.55;;;0.85;;
69053;SDS011;56125;52.242;4.756;2023-01-28T03:39:08;0.67;;;0.67;;
69053;SDS011;56125;52.242;4.756;2023-01-28T03:44:09;0.70;;;0.70;;
69053;SDS011;56125;52.242;4.756;2023-01-28T03:49:29;1.63;;;0.90;;
69053;SDS011;56125;52.242;4.756;2023-01-28T03:54:30;1.00;;;0.63;;
69053;SDS011;56125;52.242;4.756;2023-01-28T03:59:31;0.97;;;0.70;;
69053;SDS011;56125;52.242;4.756;2023-01-28T04:04:33;0.90;;;0.70;;
69053;SDS011;56125;52.242;4.756;2023-01-28T04:09:34;1.23;;;0.90;;
69053;SDS011;56125;52.242;4.756;2023-01-28T04:14:35;1.38;;;0.90;;
69053;SDS011;56125;52.242;4.756;2023-01-28T04:19:36;1.20;;;0.80;;
69053;SDS011;56125;52.242;4.756;2023-01-28T04:24:37;0.80;;;0.80;;
69053;SDS011;56125;52.242;4.756;2023-01-28T04:29:38;1.93;;;0.63;;
69053;SDS011;56125;52.242;4.756;2023-01-28T04:34:39;0.73;;;0.70;;
69053;SDS011;56125;52.242;4.756;2023-01-28T04:39:40;0.70;;;0.60;;
69053;SDS011;56125;52.242;4.756;2023-01-28T04:44:41;0.95;;;0.73;;
69053;SDS011;56125;52.242;4.756;2023-01-28T04:49:42;0.80;;;0.80;;
69053;SDS011;56125;52.242;4.756;2023-01-28T04:54:43;1.00;;;0.80;;
69053;SDS011;56125;52.242;4.756;2023-01-28T04:59:44;0.93;;;0.83;;
69053;SDS011;56125;52.242;4.756;2023-01-28T05:04:45;0.85;;;0.75;;
69053;SDS011;56125;52.242;4.756;2023-01-28T05:09:46;0.80;;;0.70;;
69053;SDS011;56125;52.242;4.756;2023-01-28T05:14:47;1.85;;;0.90;;
69053;SDS011;56125;52.242;4.756;2023-01-28T05:19:48;0.80;;;0.80;;
69053;SDS011;56125;52.242;4.756;2023-01-28T05:24:49;1.08;;;0.80;;
69053;SDS011;56125;52.242;4.756;2023-01-28T05:29:50;2.60;;;0.70;;
69053;SDS011;56125;52.242;4.756;2023-01-28T05:34:51;0.90;;;0.70;;
69053;SDS011;56125;52.242;4.756;2023-01-28T05:39:52;0.77;;;0.67;;
69053;SDS011;56125;52.242;4.756;2023-01-28T05:44:53;1.70;;;0.82;;
69053;SDS011;56125;52.242;4.756;2023-01-28T05:49:54;0.63;;;0.60;;
69053;SDS011;56125;52.242;4.756;2023-01-28T05:54:55;1.15;;;0.80;;
69053;SDS011;56125;52.242;4.756;2023-01-28T05:59:56;0.80;;;0.80;;
69053;SDS011;56125;52.242;4.756;2023-01-28T06:04:58;0.98;;;0.80;;
69053;SDS011;56125;52.242;4.756;2023-01-28T06:09:59;0.70;;;0.70;;
69053;SDS011;56125;52.242;4.756;2023-01-28T06:15:00;1.35;;;0.80;;
69053;SDS011;56125;52.242;4.756;2023-01-28T06:20:02;1.07;;;0.70;;
69053;SDS011;56125;52.242;4.756;2023-01-28T06:25:03;0.90;;;0.77;;
69053;SDS011;56125;52.242;4.756;2023-01-28T06:30:04;0.87;;;0.80;;
69053;SDS011;56125;52.242;4.756;2023-01-28T06:35:06;1.42;;;0.80;;
69053;SDS011;56125;52.242;4.756;2023-01-28T06:40:08;0.90;;;0.73;;
69053;SDS011;56125;52.242;4.756;2023-01-28T06:45:09;1.55;;;0.68;;
69053;SDS011;56125;52.242;4.756;2023-01-28T06:50:11;0.70;;;0.70;;
69053;SDS011;56125;52.242;4.756;2023-01-28T06:55:12;0.82;;;0.75;;
69053;SDS011;56125;52.242;4.756;2023-01-28T07:00:13;1.30;;;0.70;;
69053;SDS011;56125;52.242;4.756;2023-01-28T07:05:15;1.65;;;0.70;;
69053;SDS011;56125;52.242;4.756;2023-01-28T07:10:16;1.10;;;0.70;;
69053;SDS011;56125;52.242;4.756;2023-01-28T07:15:18;1.23;;;1.00;;
69053;SDS011;56125;52.242;4.756;2023-01-28T07:20:19;1.00;;;0.90;;
69053;SDS011;56125;52.242;4.756;2023-01-28T07:25:20;1.55;;;0.80;;
69053;SDS011;56125;52.242;4.756;2023-01-28T07:30:21;1.83;;;0.90;;
69053;SDS011;56125;52.242;4.756;2023-01-28T07:35:23;0.70;;;0.70;;
69053;SDS011;56125;52.242;4.756;2023-01-28T07:40:26;1.63;;;0.70;;
69053;SDS011;56125;52.242;4.756;2023-01-28T07:45:27;0.77;;;0.70;;
69053;SDS011;56125;52.242;4.756;2023-01-28T07:50:30;1.60;;;0.70;;
69053;SDS011;56125;52.242;4.756;2023-01-28T07:55:33;1.85;;;0.73;;
69053;SDS011;56125;52.242;4.756;2023-01-28T08:00:35;1.17;;;0.90;;
69053;SDS011;56125;52.242;4.756;2023-01-28T08:05:41;1.73;;;0.95;;
69053;SDS011;56125;52.242;4.756;2023-01-28T08:10:45;0.80;;;0.67;;
69053;SDS011;56125;52.242;4.756;2023-01-28T08:15:46;0.85;;;0.82;;
69053;SDS011;56125;52.242;4.756;2023-01-28T08:20:47;1.07;;;0.90;;
69053;SDS011;56125;52.242;4.756;2023-01-28T08:25:48;0.82;;;0.80;;
69053;SDS011;56125;52.242;4.756;2023-01-28T08:30:49;0.80;;;0.80;;
69053;SDS011;56125;52.242;4.756;2023-01-28T08:35:50;0.77;;;0.70;;
69053;SDS011;56125;52.242;4.756;2023-01-28T08:40:51;1.20;;;0.80;;
69053;SDS011;56125;52.242;4.756;2023-01-28T08:45:55;0.80;;;0.80;;
69053;SDS011;56125;52.242;4.756;2023-01-28T08:50:57;1.17;;;0.93;;
69053;SDS011;56125;52.242;4.756;2023-01-28T08:55:58;1.52;;;1.02;;
69053;SDS011;56125;52.242;4.756;2023-01-28T09:01:03;0.80;;;0.73;;
69053;SDS011;56125;52.242;4.756;2023-01-28T09:06:06;1.73;;;1.00;;
69053;SDS011;56125;52.242;4.756;2023-01-28T09:11:07;0.93;;;0.83;;
69053;SDS011;56125;52.242;4.756;2023-01-28T09:16:08;1.30;;;0.80;;
69053;SDS011;56125;52.242;4.756;2023-01-28T09:21:09;1.13;;;0.90;;
69053;SDS011;56125;52.242;4.756;2023-01-28T09:26:10;1.20;;;0.95;;
69053;SDS011;56125;52.242;4.756;2023-01-28T09:31:11;1.93;;;1.13;;
69053;SDS011;56125;52.242;4.756;2023-01-28T09:36:12;2.90;;;1.20;;
69053;SDS011;56125;52.242;4.756;2023-01-28T09:41:27;1.70;;;1.60;;
69053;SDS011;56125;52.242;4.756;2023-01-28T09:46:34;2.30;;;1.10;;
69053;SDS011;56125;52.242;4.756;2023-01-28T09:51:40;2.90;;;1.40;;
69053;SDS011;56125;52.242;4.756;2023-01-28T09:56:46;2.10;;;1.42;;
69053;SDS011;56125;52.242;4.756;2023-01-28T10:01:57;2.57;;;1.40;;
69053;SDS011;56125;52.242;4.756;2023-01-28T10:07:10;2.47;;;1.30;;
69053;SDS011;56125;52.242;4.756;2023-01-28T10:12:33;2.03;;;1.00;;
69053;SDS011;56125;52.242;4.756;2023-01-28T10:17:50;2.55;;;1.10;;
69053;SDS011;56125;52.242;4.756;2023-01-28T10:23:17;3.37;;;1.07;;
69053;SDS011;56125;52.242;4.756;2023-01-28T10:28:30;2.33;;;1.25;;
69053;SDS011;56125;52.242;4.756;2023-01-28T10:33:36;3.20;;;1.33;;
69053;SDS011;56125;52.242;4.756;2023-01-28T10:38:39;2.38;;;1.20;;
69053;SDS011;56125;52.242;4.756;2023-01-28T10:43:40;2.07;;;1.20;;
69053;SDS011;56125;52.242;4.756;2023-01-28T10:48:43;2.33;;;1.23;;
69053;SDS011;56125;52.242;4.756;2023-01-28T10:54:24;1.60;;;1.00;;
69053;SDS011;56125;52.242;4.756;2023-01-28T10:59:27;2.70;;;1.20;;
69053;SDS011;56125;52.242;4.756;2023-01-28T11:04:30;1.67;;;0.93;;
69053;SDS011;56125;52.242;4.756;2023-01-28T11:09:34;3.20;;;1.17;;
69053;SDS011;56125;52.242;4.756;2023-01-28T11:14:37;1.30;;;1.10;;
69053;SDS011;56125;52.242;4.756;2023-01-28T11:19:43;2.45;;;1.30;;
69053;SDS011;56125;52.242;4.756;2023-01-28T11:24:44;1.50;;;1.10;;
69053;SDS011;56125;52.242;4.756;2023-01-28T11:29:45;1.65;;;1.00;;
69053;SDS011;56125;52.242;4.756;2023-01-28T11:34:50;1.67;;;0.90;;
69053;SDS011;56125;52.242;4.756;2023-01-28T11:40:00;1.40;;;1.10;;
69053;SDS011;56125;52.242;4.756;2023-01-28T11:45:17;1.27;;;1.03;;
69053;SDS011;56125;52.242;4.756;2023-01-28T11:50:32;1.40;;;0.90;;
69053;SDS011;56125;52.242;4.756;2023-01-28T11:55:57;1.30;;;1.17;;
69053;SDS011;56125;52.242;4.756;2023-01-28T12:01:15;1.85;;;1.02;;
69053;SDS011;56125;52.242;4.756;2023-01-28T12:17:24;2.30;;;1.33;;
69053;SDS011;56125;52.242;4.756;2023-01-28T12:27:57;1.57;;;1.00;;
69053;SDS011;56125;52.242;4.756;2023-01-28T12:38:55;2.73;;;0.90;;
69053;SDS011;56125;52.242;4.756;2023-01-28T12:44:19;1.15;;;0.70;;
69053;SDS011;56125;52.242;4.756;2023-01-28T12:49:28;2.70;;;0.90;;
69053;SDS011;56125;52.242;4.756;2023-01-28T12:55:03;1.10;;;1.00;;
69053;SDS011;56125;52.242;4.756;2023-01-28T13:05:32;1.20;;;0.70;;
69053;SDS011;56125;52.242;4.756;2023-01-28T13:10:39;1.33;;;0.70;;
69053;SDS011;56125;52.242;4.756;2023-01-28T13:15:43;1.27;;;0.68;;
69053;SDS011;56125;52.242;4.756;2023-01-28T13:20:46;0.87;;;0.70;;
69053;SDS011;56125;52.242;4.756;2023-01-28T13:25:50;1.33;;;0.80;;
69053;SDS011;56125;52.242;4.756;2023-01-28T13:31:00;1.37;;;0.70;;
69053;SDS011;56125;52.242;4.756;2023-01-28T13:41:35;1.10;;;0.60;;
69053;SDS011;56125;52.242;4.756;2023-01-28T13:46:41;1.50;;;0.80;;
69053;SDS011;56125;52.242;4.756;2023-01-28T13:51:55;1.60;;;0.70;;
69053;SDS011;56125;52.242;4.756;2023-01-28T14:19:02;1.17;;;0.80;;
69053;SDS011;56125;52.242;4.756;2023-01-28T14:24:03;1.50;;;1.00;;
69053;SDS011;56125;52.242;4.756;2023-01-28T14:29:09;0.95;;;0.80;;
69053;SDS011;56125;52.242;4.756;2023-01-28T14:34:35;1.37;;;0.80;;
69053;SDS011;56125;52.242;4.756;2023-01-28T14:45:05;1.43;;;0.97;;
69053;SDS011;56125;52.242;4.756;2023-01-28T14:50:40;1.10;;;0.73;;
69053;SDS011;56125;52.242;4.756;2023-01-28T15:00:59;1.92;;;0.70;;
69053;SDS011;56125;52.242;4.756;2023-01-28T15:06:16;1.00;;;0.60;;
69053;SDS011;56125;52.242;4.756;2023-01-28T15:11:22;1.27;;;1.00;;
69053;SDS011;56125;52.242;4.756;2023-01-28T15:16:26;2.33;;;0.90;;
69053;SDS011;56125;52.242;4.756;2023-01-28T15:21:29;1.55;;;1.00;;
69053;SDS011;56125;52.242;4.756;2023-01-28T15:26:31;2.60;;;0.80;;
69053;SDS011;56125;52.242;4.756;2023-01-28T15:31:34;1.55;;;0.90;;
69053;SDS011;56125;52.242;4.756;2023-01-28T15:36:38;1.27;;;0.77;;
69053;SDS011;56125;52.242;4.756;2023-01-28T15:41:40;1.00;;;0.90;;
69053;SDS011;56125;52.242;4.756;2023-01-28T15:46:43;1.20;;;0.70;;
69053;SDS011;56125;52.242;4.756;2023-01-28T15:51:47;1.85;;;0.80;;
69053;SDS011;56125;52.242;4.756;2023-01-28T15:56:52;1.10;;;0.80;;
69053;SDS011;56125;52.242;4.756;2023-01-28T16:02:13;2.13;;;0.82;;
69053;SDS011;56125;52.242;4.756;2023-01-28T16:07:15;1.50;;;1.00;;
69053;SDS011;56125;52.242;4.756;2023-01-28T16:12:17;1.40;;;0.90;;
69053;SDS011;56125;52.242;4.756;2023-01-28T16:17:20;1.57;;;0.80;;
69053;SDS011;56125;52.242;4.756;2023-01-28T16:22:31;0.90;;;0.70;;
69053;SDS011;56125;52.242;4.756;2023-01-28T16:27:38;2.20;;;0.80;;
69053;SDS011;56125;52.242;4.756;2023-01-28T16:32:39;1.50;;;0.75;;
69053;SDS011;56125;52.242;4.756;2023-01-28T16:37:45;1.63;;;0.70;;
69053;SDS011;56125;52.242;4.756;2023-01-28T16:42:47;1.00;;;0.70;;
69053;SDS011;56125;52.242;4.756;2023-01-28T16:47:49;1.23;;;0.90;;
69053;SDS011;56125;52.242;4.756;2023-01-28T16:52:50;1.08;;;0.70;;
69053;SDS011;56125;52.242;4.756;2023-01-28T16:57:54;1.60;;;0.70;;
69053;SDS011;56125;52.242;4.756;2023-01-28T17:02:56;1.70;;;0.90;;
69053;SDS011;56125;52.242;4.756;2023-01-28T17:07:57;1.30;;;1.00;;
69053;SDS011;56125;52.242;4.756;2023-01-28T17:12:58;1.70;;;1.23;;
69053;SDS011;56125;52.242;4.756;2023-01-28T17:17:59;1.13;;;0.90;;
69053;SDS011;56125;52.242;4.756;2023-01-28T17:23:00;2.50;;;1.20;;
69053;SDS011;56125;52.242;4.756;2023-01-28T17:28:01;1.57;;;1.20;;
69053;SDS011;56125;52.242;4.756;2023-01-28T17:33:03;1.40;;;1.30;;
69053;SDS011;56125;52.242;4.756;2023-01-28T17:38:04;1.70;;;1.33;;
69053;SDS011;56125;52.242;4.756;2023-01-28T17:43:05;1.60;;;1.25;;
69053;SDS011;56125;52.242;4.756;2023-01-28T17:48:06;2.77;;;1.30;;
69053;SDS011;56125;52.242;4.756;2023-01-28T17:53:08;2.13;;;1.40;;
69053;SDS011;56125;52.242;4.756;2023-01-28T17:58:09;2.60;;;1.60;;
69053;SDS011;56125;52.242;4.756;2023-01-28T18:03:11;2.22;;;1.70;;
69053;SDS011;56125;52.242;4.756;2023-01-28T18:08:13;3.10;;;1.50;;
69053;SDS011;56125;52.242;4.756;2023-01-28T18:13:14;2.05;;;1.50;;
69053;SDS011;56125;52.242;4.756;2023-01-28T18:18:15;1.77;;;1.43;;
69053;SDS011;56125;52.242;4.756;2023-01-28T18:23:16;1.75;;;1.30;;
69053;SDS011;56125;52.242;4.756;2023-01-28T18:28:17;2.00;;;1.40;;
69053;SDS011;56125;52.242;4.756;2023-01-28T18:33:18;2.50;;;1.75;;
69053;SDS011;56125;52.242;4.756;2023-01-28T18:38:20;2.33;;;1.50;;
69053;SDS011;56125;52.242;4.756;2023-01-28T18:43:21;2.08;;;1.38;;
69053;SDS011;56125;52.242;4.756;2023-01-28T18:48:22;2.53;;;1.47;;
69053;SDS011;56125;52.242;4.756;2023-01-28T18:53:23;1.70;;;1.38;;
69053;SDS011;56125;52.242;4.756;2023-01-28T18:58:25;2.20;;;1.60;;
69053;SDS011;56125;52.242;4.756;2023-01-28T19:03:26;3.03;;;1.50;;
69053;SDS011;56125;52.242;4.756;2023-01-28T19:08:27;1.70;;;1.20;;
69053;SDS011;56125;52.242;4.756;2023-01-28T19:13:28;2.17;;;1.60;;
69053;SDS011;56125;52.242;4.756;2023-01-28T19:18:29;2.70;;;1.50;;
69053;SDS011;56125;52.242;4.756;2023-01-28T19:23:31;2.50;;;1.55;;
69053;SDS011;56125;52.242;4.756;2023-01-28T19:28:33;3.93;;;1.67;;
69053;SDS011;56125;52.242;4.756;2023-01-28T19:33:34;2.55;;;1.80;;
69053;SDS011;56125;52.242;4.756;2023-01-28T19:38:35;1.93;;;1.27;;
69053;SDS011;56125;52.242;4.756;2023-01-28T19:43:37;2.15;;;1.65;;
69053;SDS011;56125;52.242;4.756;2023-01-28T19:48:38;2.73;;;1.60;;
69053;SDS011;56125;52.242;4.756;2023-01-28T19:53:40;2.33;;;1.58;;
69053;SDS011;56125;52.242;4.756;2023-01-28T19:58:43;2.73;;;1.87;;
69053;SDS011;56125;52.242;4.756;2023-01-28T20:03:47;3.33;;;2.20;;
69053;SDS011;56125;52.242;4.756;2023-01-28T20:08:55;3.30;;;1.97;;
69053;SDS011;56125;52.242;4.756;2023-01-28T20:13:58;3.42;;;1.58;;
69053;SDS011;56125;52.242;4.756;2023-01-28T20:19:00;2.37;;;1.80;;
69053;SDS011;56125;52.242;4.756;2023-01-28T20:24:03;4.32;;;1.75;;
69053;SDS011;56125;52.242;4.756;2023-01-28T20:29:07;4.80;;;1.87;;
69053;SDS011;56125;52.242;4.756;2023-01-28T20:34:13;3.47;;;1.58;;
69053;SDS011;56125;52.242;4.756;2023-01-28T20:39:16;4.13;;;2.10;;
69053;SDS011;56125;52.242;4.756;2023-01-28T20:44:17;4.80;;;2.53;;
69053;SDS011;56125;52.242;4.756;2023-01-28T20:49:18;4.07;;;2.50;;
69053;SDS011;56125;52.242;4.756;2023-01-28T20:54:19;5.13;;;2.40;;
69053;SDS011;56125;52.242;4.756;2023-01-28T20:59:20;3.67;;;2.30;;
69053;SDS011;56125;52.242;4.756;2023-01-28T21:04:23;3.50;;;2.17;;
69053;SDS011;56125;52.242;4.756;2023-01-28T21:09:24;3.40;;;2.27;;
69053;SDS011;56125;52.242;4.756;2023-01-28T21:14:27;3.45;;;2.20;;
69053;SDS011;56125;52.242;4.756;2023-01-28T21:19:28;3.73;;;2.30;;
69053;SDS011;56125;52.242;4.756;2023-01-28T21:24:29;3.67;;;2.55;;
69053;SDS011;56125;52.242;4.756;2023-01-28T21:29:30;3.93;;;2.30;;
69053;SDS011;56125;52.242;4.756;2023-01-28T21:34:31;6.20;;;2.35;;
69053;SDS011;56125;52.242;4.756;2023-01-28T21:39:32;3.17;;;2.03;;
69053;SDS011;56125;52.242;4.756;2023-01-28T21:44:33;3.38;;;2.33;;
69053;SDS011;56125;52.242;4.756;2023-01-28T21:49:34;4.47;;;2.50;;
69053;SDS011;56125;52.242;4.756;2023-01-28T21:54:35;4.43;;;2.60;;
69053;SDS011;56125;52.242;4.756;2023-01-28T21:59:36;4.47;;;2.33;;
69053;SDS011;56125;52.242;4.756;2023-01-28T22:04:40;3.78;;;2.58;;
69053;SDS011;56125;52.242;4.756;2023-01-28T22:09:43;4.70;;;2.50;;
69053;SDS011;56125;52.242;4.756;2023-01-28T22:14:45;5.60;;;2.50;;
69053;SDS011;56125;52.242;4.756;2023-01-28T22:19:46;4.00;;;2.50;;
69053;SDS011;56125;52.242;4.756;2023-01-28T22:24:47;4.25;;;2.80;;
69053;SDS011;56125;52.242;4.756;2023-01-28T22:29:48;3.60;;;2.47;;
69053;SDS011;56125;52.242;4.756;2023-01-28T22:34:49;3.28;;;2.25;;
69053;SDS011;56125;52.242;4.756;2023-01-28T22:39:50;4.07;;;2.40;;
69053;SDS011;56125;52.242;4.756;2023-01-28T22:44:51;2.97;;;2.30;;
69053;SDS011;56125;52.242;4.756;2023-01-28T22:49:52;3.20;;;2.33;;
69053;SDS011;56125;52.242;4.756;2023-01-28T22:54:53;3.17;;;2.28;;
69053;SDS011;56125;52.242;4.756;2023-01-28T22:59:54;3.83;;;2.73;;
69053;SDS011;56125;52.242;4.756;2023-01-28T23:04:56;3.78;;;2.70;;
69053;SDS011;56125;52.242;4.756;2023-01-28T23:09:57;3.50;;;2.27;;
69053;SDS011;56125;52.242;4.756;2023-01-28T23:14:58;3.20;;;2.50;;
69053;SDS011;56125;52.242;4.756;2023-01-28T23:20:17;3.30;;;2.20;;
69053;SDS011;56125;52.242;4.756;2023-01-28T23:25:37;3.35;;;2.58;;
69053;SDS011;56125;52.242;4.756;2023-01-28T23:30:38;3.77;;;2.47;;
69053;SDS011;56125;52.242;4.756;2023-01-28T23:35:39;2.65;;;2.05;;
69053;SDS011;56125;52.242;4.756;2023-01-28T23:40:40;3.37;;;2.30;;
69053;SDS011;56125;52.242;4.756;2023-01-28T23:45:41;5.43;;;2.50;;
69053;SDS011;56125;52.242;4.756;2023-01-28T23:50:42;4.27;;;2.23;;
69053;SDS011;56125;52.242;4.756;2023-01-28T23:55:43;3.13;;;2.25;;
